Time;durP1;ratioP1;P1;durP2;ratioP2;P2;SDS_P1;SDS_P2;PMS_P1;PMS_P2;Temp;Humidity;BMP_temperature;BMP_pressure;BME280_temperature;BME280_humidity;BME280_pressure;Samples;Min_cycle;Max_cycle;Signal;HPM_P1;HPM_P2
2023/10/03 00:00:31;;;;;;;;;8.00;8.00;;;;;27.01;100.00;100740.94;2087382;28;46182;-63
2023/10/03 00:01:37;;;;;;;;;7.75;7.75;;;;;26.98;100.00;100736.63;2095514;28;46961;-64
2023/10/03 00:02:38;;;;;;;;;10.00;9.00;;;;;27.00;100.00;100731.03;2095650;28;46352;-62
2023/10/03 00:03:38;;;;;;;;;11.67;11.00;;;;;26.98;100.00;100733.03;2095807;28;46646;-64
2023/10/03 00:04:39;;;;;;;;;14.00;13.00;;;;;27.01;100.00;100730.06;2094104;28;46569;-64
2023/10/03 00:05:42;;;;;;;;;11.00;10.67;;;;;27.01;100.00;100719.16;2090789;28;46388;-61
2023/10/03 00:06:46;;;;;;;;;8.25;8.25;;;;;27.01;100.00;100730.06;2087617;28;46646;-60
2023/10/03 00:07:47;;;;;;;;;9.00;9.00;;;;;27.02;100.00;100725.47;2095995;28;46302;-64
2023/10/03 00:08:48;;;;;;;;;12.00;11.75;;;;;27.01;100.00;100721.88;2086974;28;46740;-63
2023/10/03 00:09:48;;;;;;;;;14.60;13.60;;;;;27.01;100.00;100723.72;2087302;28;46956;-61
2023/10/03 00:10:49;;;;;;;;;9.33;9.33;;;;;27.01;100.00;100730.06;2095596;28;46294;-63
2023/10/03 00:11:49;;;;;;;;;9.25;9.25;;;;;27.02;100.00;100737.22;2088778;28;46936;-63
2023/10/03 00:12:51;;;;;;;;;10.25;10.25;;;;;27.00;100.00;100731.03;2091318;28;46209;-58
2023/10/03 00:13:51;;;;;;;;;9.20;9.20;;;;;26.99;100.00;100732.03;2092772;28;46681;-64
2023/10/03 00:14:52;;;;;;;;;9.33;9.33;;;;;26.98;100.00;100733.91;2095417;28;46308;-63
2023/10/03 00:15:53;;;;;;;;;12.75;11.75;;;;;26.97;100.00;100729.44;2086705;28;46215;-64
2023/10/03 00:16:54;;;;;;;;;10.50;10.00;;;;;26.97;100.00;100734.91;2087219;28;46628;-63
2023/10/03 00:17:55;;;;;;;;;10.60;9.40;;;;;26.96;100.00;100732.31;2089373;28;47310;-63
2023/10/03 00:18:56;;;;;;;;;9.25;9.25;;;;;26.95;100.00;100725.16;2086998;28;46893;-63
2023/10/03 00:19:56;;;;;;;;;10.00;9.50;;;;;26.95;100.00;100725.16;2088088;28;46449;-63
2023/10/03 00:20:56;;;;;;;;;10.33;10.33;;;;;26.94;100.00;100723.44;2095750;28;46200;-61
2023/10/03 00:21:56;;;;;;;;;9.00;9.00;;;;;26.94;100.00;100726.16;2094406;28;46750;-62
2023/10/03 00:22:57;;;;;;;;;10.00;10.00;;;;;26.93;100.00;100730.75;2097552;28;46663;-63
2023/10/03 00:23:57;;;;;;;;;11.75;11.50;;;;;26.94;100.00;100737.03;2087394;28;46767;-63
2023/10/03 00:24:57;;;;;;;;;8.33;8.33;;;;;26.93;100.00;100741.63;2093227;28;46233;-62
2023/10/03 00:26:01;;;;;;;;;11.50;11.50;;;;;26.94;100.00;100743.34;2104029;27;46574;-65
2023/10/03 00:27:05;;;;;;;;;12.00;10.75;;;;;26.94;100.00;100742.50;2113385;27;46536;-62
2023/10/03 00:28:06;;;;;;;;;9.00;8.80;;;;;26.84;100.00;100744.31;2112886;27;46887;-64
2023/10/03 00:29:12;;;;;;;;;12.00;9.00;;;;;26.90;100.00;100750.03;2113200;27;46219;-60
2023/10/03 00:30:14;;;;;;;;;10.80;10.40;;;;;26.87;100.00;100738.56;2113378;27;46442;-62
2023/10/03 00:31:15;;;;;;;;;8.25;8.25;;;;;26.89;100.00;100745.59;2113497;27;46640;-64
2023/10/03 00:32:15;;;;;;;;;13.00;12.25;;;;;26.90;100.00;100741.03;2113019;27;46436;-63
2023/10/03 00:33:17;;;;;;;;;11.33;9.33;;;;;26.90;100.00;100741.03;2113406;27;46443;-61
2023/10/03 00:34:17;;;;;;;;;10.00;9.60;;;;;26.88;100.00;100738.44;2113254;27;46410;-57
2023/10/03 00:35:22;;;;;;;;;9.00;8.00;;;;;26.90;100.00;100738.28;2112621;27;46428;-64
2023/10/03 00:36:24;;;;;;;;;10.20;9.20;;;;;26.91;100.00;100723.69;2103640;28;46538;-63
2023/10/03 00:37:25;;;;;;;;;11.00;10.00;;;;;26.90;100.00;100730.13;2100617;27;46320;-63
2023/10/03 00:38:25;;;;;;;;;12.50;12.50;;;;;26.88;100.00;100734.84;2112963;27;47177;-63
2023/10/03 00:39:27;;;;;;;;;10.50;10.50;;;;;26.89;100.00;100742.88;2111582;27;46431;-64
2023/10/03 00:40:28;;;;;;;;;10.40;9.80;;;;;26.89;100.00;100740.16;2113111;27;46282;-59
2023/10/03 00:41:29;;;;;;;;;11.25;11.25;;;;;26.89;100.00;100736.56;2113184;27;46267;-62
2023/10/03 00:42:31;;;;;;;;;14.60;12.80;;;;;26.90;100.00;100739.16;2113231;27;46833;-63
2023/10/03 00:43:31;;;;;;;;;12.60;11.00;;;;;26.88;100.00;100748.47;2112968;27;46724;-62
2023/10/03 00:44:32;;;;;;;;;11.00;9.75;;;;;26.88;100.00;100743.03;2109601;27;46327;-62
2023/10/03 00:45:32;;;;;;;;;10.75;9.25;;;;;26.85;100.00;100749.63;2106654;27;46834;-60
2023/10/03 00:46:33;;;;;;;;;13.00;13.00;;;;;26.85;100.00;100751.47;2113186;27;46853;-63
2023/10/03 00:47:33;;;;;;;;;14.75;14.75;;;;;26.86;100.00;100748.63;2112973;27;46455;-60
2023/10/03 00:48:34;;;;;;;;;12.50;11.25;;;;;26.85;100.00;100755.06;2113505;27;46987;-61
2023/10/03 00:49:35;;;;;;;;;10.60;10.60;;;;;26.85;100.00;100746.88;2113603;27;47106;-62
2023/10/03 00:50:36;;;;;;;;;11.25;10.25;;;;;26.88;100.00;100756.63;2113415;27;46447;-64
2023/10/03 00:51:40;;;;;;;;;10.20;10.20;;;;;26.89;100.00;100750.19;2113565;27;46976;-63
2023/10/03 00:52:42;;;;;;;;;13.00;12.00;;;;;26.86;100.00;100754.06;2113342;27;46582;-61
2023/10/03 00:53:43;;;;;;;;;10.75;10.50;;;;;26.88;100.00;100757.50;2113598;27;46312;-63
2023/10/03 00:54:44;;;;;;;;;9.80;9.80;;;;;26.86;100.00;100756.78;2113609;27;46615;-59
2023/10/03 00:55:44;;;;;;;;;7.25;7.25;;;;;26.85;100.00;100760.50;2107179;27;46782;-63
2023/10/03 00:56:45;;;;;;;;;9.50;8.50;;;;;26.85;100.00;100757.78;2105640;27;46551;-61
2023/10/03 00:57:45;;;;;;;;;11.75;10.50;;;;;26.86;100.00;100764.94;2112175;27;46686;-63
2023/10/03 00:58:45;;;;;;;;;13.25;12.50;;;;;26.87;100.00;100763.09;2112924;27;46773;-63
2023/10/03 00:59:46;;;;;;;;;10.00;10.00;;;;;26.86;100.00;100764.94;2103861;28;46180;-62
2023/10/03 01:00:53;;;;;;;;;10.50;10.50;;;;;26.86;100.00;100761.38;2105387;27;46249;-63
2023/10/03 01:02:02;;;;;;;;;11.00;11.00;;;;;26.85;100.00;100754.19;2113458;27;46500;-63
2023/10/03 01:03:03;;;;;;;;;10.40;10.40;;;;;26.85;100.00;100757.78;2112841;27;46924;-61
2023/10/03 01:04:17;;;;;;;;;11.20;11.20;;;;;26.84;100.00;100755.19;2113840;27;47172;-60
2023/10/03 01:05:18;;;;;;;;;11.80;10.40;;;;;26.83;100.00;100764.38;2113373;27;46386;-60
2023/10/03 01:06:18;;;;;;;;;9.25;9.25;;;;;26.82;100.00;100760.78;2112974;27;46396;-59
2023/10/03 01:07:19;;;;;;;;;11.00;10.25;;;;;26.82;100.00;100768.09;2113197;27;46019;-62
2023/10/03 01:08:23;;;;;;;;;12.50;11.75;;;;;26.79;100.00;100761.03;2112470;27;46671;-62
2023/10/03 01:09:27;;;;;;;;;15.20;12.60;;;;;26.81;100.00;100766.38;2112440;27;46717;-63
2023/10/03 01:10:28;;;;;;;;;14.40;12.20;;;;;26.80;100.00;100764.63;2113094;27;46862;-63
2023/10/03 01:11:29;;;;;;;;;10.00;8.50;;;;;26.77;100.00;100763.03;2113012;27;46497;-62
2023/10/03 01:12:29;;;;;;;;;11.00;10.80;;;;;26.79;100.00;100757.44;2108970;27;46243;-61
2023/10/03 01:13:31;;;;;;;;;10.75;10.50;;;;;26.79;100.00;100760.19;2104146;27;46782;-58
2023/10/03 01:14:38;;;;;;;;;11.00;10.80;;;;;26.80;100.00;100761.91;2113001;27;46580;-63
2023/10/03 01:15:39;;;;;;;;;11.80;10.80;;;;;26.78;100.00;100772.94;2095894;28;46413;-63
2023/10/03 01:16:40;;;;;;;;;10.00;10.00;;;;;26.76;100.00;100768.63;2095874;28;46613;-63
2023/10/03 01:17:42;;;;;;;;;7.25;7.25;;;;;26.77;100.00;100765.75;2090002;28;46851;-62
2023/10/03 01:18:43;;;;;;;;;10.40;10.20;;;;;26.77;100.00;100767.63;2096241;28;46714;-59
2023/10/03 01:19:44;;;;;;;;;9.75;9.75;;;;;26.75;100.00;100765.03;2095567;28;46248;-63
2023/10/03 01:20:48;;;;;;;;;13.00;12.25;;;;;26.73;100.00;100764.31;2095361;28;46382;-63
2023/10/03 01:21:50;;;;;;;;;10.80;10.20;;;;;26.74;100.00;100762.47;2088459;28;46642;-61
2023/10/03 01:22:54;;;;;;;;;8.60;8.60;;;;;26.74;100.00;100768.75;2089266;28;47085;-63
2023/10/03 01:23:54;;;;;;;;;10.00;10.00;;;;;26.70;100.00;100761.88;2097962;28;46615;-64
2023/10/03 01:24:55;;;;;;;;;12.00;10.50;;;;;26.70;100.00;100761.88;2107132;27;46507;-61
2023/10/03 01:25:55;;;;;;;;;14.75;11.75;;;;;26.72;100.00;100764.47;2104937;28;46240;-63
2023/10/03 01:26:55;;;;;;;;;10.75;10.25;;;;;26.64;100.00;100770.56;2094460;28;46380;-63
2023/10/03 01:27:56;;;;;;;;;10.50;9.50;;;;;26.60;100.00;100771.84;2096405;28;46214;-61
2023/10/03 01:28:57;;;;;;;;;9.75;8.25;;;;;26.58;100.00;100777.44;2092347;28;46850;-63
2023/10/03 01:29:58;;;;;;;;;12.00;11.40;;;;;26.56;100.00;100773.97;2097469;28;46456;-63
2023/10/03 01:30:58;;;;;;;;;12.00;10.33;;;;;26.55;100.00;100783.16;2103689;27;46339;-62
2023/10/03 01:31:58;;;;;;;;;10.75;9.25;;;;;26.54;100.00;100772.38;2105239;28;46188;-61
2023/10/03 01:33:01;;;;;;;;;13.00;11.00;;;;;26.54;100.00;100780.53;2098303;28;47032;-62
2023/10/03 01:34:02;;;;;;;;;13.20;11.40;;;;;26.51;100.00;100792.56;2097168;28;46444;-62
2023/10/03 01:35:08;;;;;;;;;11.00;10.00;;;;;26.51;100.00;100778.94;2097107;28;46461;-62
2023/10/03 01:36:10;;;;;;;;;13.00;11.40;;;;;26.49;100.00;100782.81;2097401;28;46896;-63
2023/10/03 01:37:10;;;;;;;;;10.60;10.20;;;;;26.47;100.00;100784.81;2095251;28;46616;-61
2023/10/03 01:38:13;;;;;;;;;9.75;9.25;;;;;26.48;100.00;100781.94;2097334;28;46440;-63
2023/10/03 01:39:15;;;;;;;;;9.20;9.20;;;;;26.47;100.00;100776.63;2097588;28;46241;-64
2023/10/03 01:40:16;;;;;;;;;14.80;13.00;;;;;26.47;100.00;100782.09;2097683;28;46348;-62
2023/10/03 01:41:17;;;;;;;;;12.20;12.20;;;;;26.59;100.00;100773.69;2097217;28;46896;-60
2023/10/03 01:42:18;;;;;;;;;12.25;12.25;;;;;26.63;100.00;100777.88;2097728;28;46754;-59
2023/10/03 01:43:19;;;;;;;;;11.40;10.00;;;;;26.64;100.00;100776.88;2096313;28;46504;-63
2023/10/03 01:44:19;;;;;;;;;7.75;7.75;;;;;26.65;100.00;100784.03;2095281;28;46485;-64
2023/10/03 01:45:22;;;;;;;;;14.00;14.00;;;;;26.66;100.00;100784.91;2097578;28;46116;-56
2023/10/03 01:46:22;;;;;;;;;12.40;12.40;;;;;26.68;100.00;100778.34;2096719;28;46653;-61
2023/10/03 01:47:24;;;;;;;;;14.25;14.00;;;;;26.68;100.00;100786.50;2097106;28;46577;-62
2023/10/03 01:48:25;;;;;;;;;13.60;13.00;;;;;26.67;100.00;100786.63;2097400;28;46358;-64
2023/10/03 01:49:26;;;;;;;;;13.00;11.25;;;;;26.67;100.00;100787.47;2097794;28;46419;-62
2023/10/03 01:50:29;;;;;;;;;12.00;10.25;;;;;26.68;100.00;100791.09;2097094;28;46631;-63
2023/10/03 01:51:29;;;;;;;;;13.60;13.60;;;;;26.67;100.00;100787.47;2091006;28;46427;-62
2023/10/03 01:52:30;;;;;;;;;11.00;11.00;;;;;26.66;100.00;100787.63;2097581;28;46521;-61
2023/10/03 01:53:31;;;;;;;;;12.75;12.75;;;;;26.68;100.00;100791.97;2098298;27;46913;-58
2023/10/03 01:54:31;;;;;;;;;13.00;11.75;;;;;26.64;100.00;100784.19;2097640;28;46372;-62
2023/10/03 01:55:31;;;;;;;;;14.75;13.75;;;;;26.62;100.00;100783.47;2097342;28;46645;-63
2023/10/03 01:56:33;;;;;;;;;14.75;14.50;;;;;26.61;100.00;100784.47;2097251;28;46231;-62
2023/10/03 01:57:34;;;;;;;;;11.60;10.60;;;;;26.62;100.00;100787.03;2096994;28;46487;-60
2023/10/03 01:58:34;;;;;;;;;12.00;11.50;;;;;26.60;100.00;100788.19;2088328;28;46642;-63
2023/10/03 01:59:34;;;;;;;;;12.25;11.25;;;;;26.61;100.00;100792.63;2096633;28;46357;-62
2023/10/03 02:00:36;;;;;;;;;17.00;14.00;;;;;26.57;100.00;100786.59;2094325;28;46324;-63
2023/10/03 02:01:37;;;;;;;;;14.60;13.00;;;;;26.55;100.00;100777.69;2092877;28;46147;-63
2023/10/03 02:02:38;;;;;;;;;10.75;10.75;;;;;26.58;100.00;100780.16;2098006;28;45757;-64
2023/10/03 02:03:39;;;;;;;;;12.00;12.00;;;;;26.59;100.00;100789.19;2096492;28;46516;-63
2023/10/03 02:04:40;;;;;;;;;12.40;12.20;;;;;26.59;100.00;100783.72;2098408;28;46722;-62
2023/10/03 02:05:43;;;;;;;;;14.50;14.50;;;;;26.58;100.00;100777.44;2092689;28;46073;-63
2023/10/03 02:06:44;;;;;;;;;12.00;12.00;;;;;26.62;100.00;100787.03;2094074;28;46913;-61
2023/10/03 02:07:48;;;;;;;;;11.75;11.75;;;;;26.58;100.00;100773.84;2097101;28;46188;-60
2023/10/03 02:08:48;;;;;;;;;13.80;13.00;;;;;26.57;100.00;100780.28;2097509;28;45567;-60
2023/10/03 02:09:49;;;;;;;;;14.50;14.00;;;;;26.53;100.00;100785.13;2097132;28;46741;-62
2023/10/03 02:10:50;;;;;;;;;13.40;13.40;;;;;26.56;100.00;100778.56;2097924;28;46365;-63
2023/10/03 02:11:51;;;;;;;;;16.20;14.80;;;;;26.56;100.00;100784.00;2097162;28;46594;-61
2023/10/03 02:12:51;;;;;;;;;13.50;12.00;;;;;26.56;100.00;100793.03;2097325;28;46778;-63
2023/10/03 02:13:51;;;;;;;;;13.25;12.25;;;;;26.57;100.00;100792.03;2097988;28;46209;-62
2023/10/03 02:14:54;;;;;;;;;12.50;12.50;;;;;26.57;100.00;100799.34;2103124;27;46279;-61
2023/10/03 02:15:54;;;;;;;;;16.00;15.00;;;;;26.56;100.00;100801.19;2111737;27;46218;-63
2023/10/03 02:16:55;;;;;;;;;13.00;12.25;;;;;26.57;100.00;100799.34;2113987;27;46879;-61
2023/10/03 02:17:59;;;;;;;;;13.00;12.50;;;;;26.54;100.00;100797.72;2114455;27;46499;-59
2023/10/03 02:18:59;;;;;;;;;10.20;10.00;;;;;26.42;100.00;100789.75;2114057;27;46312;-63
2023/10/03 02:19:59;;;;;;;;;14.50;13.25;;;;;26.40;100.00;100801.66;2111439;27;46665;-61
2023/10/03 02:21:01;;;;;;;;;13.75;13.75;;;;;26.51;100.00;100795.28;2114221;27;46507;-62
2023/10/03 02:22:02;;;;;;;;;14.40;14.00;;;;;26.49;100.00;100794.56;2114551;27;46843;-61
2023/10/03 02:23:05;;;;;;;;;14.50;13.00;;;;;26.53;100.00;100787.84;2114310;27;45814;-63
2023/10/03 02:24:06;;;;;;;;;15.20;15.20;;;;;26.40;100.00;100779.03;2105216;28;46603;-63
2023/10/03 02:25:09;;;;;;;;;14.80;14.80;;;;;26.42;100.00;100787.03;2105454;27;46740;-60
2023/10/03 02:26:11;;;;;;;;;15.20;14.20;;;;;26.37;100.00;100784.72;2114114;27;46591;-64
2023/10/03 02:27:11;;;;;;;;;15.20;15.20;;;;;26.36;100.00;100789.31;2113966;27;46713;-62
2023/10/03 02:28:14;;;;;;;;;14.50;14.50;;;;;26.36;100.00;100793.91;2114248;27;46420;-60
2023/10/03 02:29:15;;;;;;;;;14.80;14.40;;;;;26.36;100.00;100783.88;2114181;27;46726;-64
2023/10/03 02:30:19;;;;;;;;;17.75;17.75;;;;;26.35;100.00;100789.41;2113956;27;46492;-62
2023/10/03 02:31:20;;;;;;;;;14.20;14.20;;;;;26.39;100.00;100790.91;2113800;27;46860;-63
2023/10/03 02:32:20;;;;;;;;;16.75;15.00;;;;;26.42;100.00;100801.50;2112970;27;46507;-63
2023/10/03 02:33:23;;;;;;;;;14.75;14.75;;;;;26.44;100.00;100801.41;2113035;27;46270;-63
2023/10/03 02:34:23;;;;;;;;;15.80;15.00;;;;;26.43;100.00;100806.00;2111586;27;46624;-61
2023/10/03 02:35:24;;;;;;;;;13.75;13.75;;;;;26.45;100.00;100798.56;2113183;27;46319;-62
2023/10/03 02:36:25;;;;;;;;;13.80;13.20;;;;;26.46;100.00;100799.41;2110906;27;46853;-62
2023/10/03 02:37:25;;;;;;;;;15.50;15.50;;;;;26.46;100.00;100807.56;2111022;27;46359;-62
2023/10/03 02:38:29;;;;;;;;;15.75;15.75;;;;;26.40;100.00;100806.22;2113871;27;46711;-60
2023/10/03 02:39:35;;;;;;;;;15.80;15.40;;;;;26.32;100.00;100806.00;2111488;27;46482;-58
2023/10/03 02:40:36;;;;;;;;;14.60;13.60;;;;;26.29;100.00;100806.25;2114105;27;47027;-60
2023/10/03 02:41:36;;;;;;;;;16.50;16.50;;;;;26.26;100.00;100801.94;2113943;27;46433;-62
2023/10/03 02:42:38;;;;;;;;;12.25;12.25;;;;;26.24;100.00;100790.34;2113719;27;46489;-61
2023/10/03 02:43:42;;;;;;;;;16.60;16.60;;;;;26.23;100.00;100794.06;2114271;27;46735;-63
2023/10/03 02:44:43;;;;;;;;;15.40;15.40;;;;;26.23;100.00;100793.19;2114015;27;46387;-63
2023/10/03 02:45:43;;;;;;;;;14.80;14.80;;;;;26.21;100.00;100784.31;2113890;27;47028;-64
2023/10/03 02:46:44;;;;;;;;;15.75;15.25;;;;;26.20;100.00;100786.16;2113749;27;46650;-63
2023/10/03 02:47:46;;;;;;;;;14.75;14.75;;;;;26.21;100.00;100789.75;2114021;27;46792;-63
2023/10/03 02:48:48;;;;;;;;;17.20;15.00;;;;;26.19;100.00;100781.72;2114037;27;46472;-60
2023/10/03 02:49:51;;;;;;;;;16.00;15.20;;;;;26.21;100.00;100792.47;2113416;27;46876;-63
2023/10/03 02:50:52;;;;;;;;;13.80;13.20;;;;;26.26;100.00;100792.94;2112889;27;46280;-60
2023/10/03 02:51:53;;;;;;;;;18.00;17.00;;;;;26.30;100.00;100783.53;2105241;28;45672;-61
2023/10/03 02:52:56;;;;;;;;;15.00;15.00;;;;;26.31;100.00;100787.97;2105008;27;46179;-63
2023/10/03 02:53:57;;;;;;;;;15.40;15.40;;;;;26.34;100.00;100799.44;2107299;27;46896;-63
2023/10/03 02:54:57;;;;;;;;;17.75;15.25;;;;;26.33;100.00;100797.72;2096486;27;46317;-63
2023/10/03 02:55:58;;;;;;;;;18.75;13.50;;;;;26.30;100.00;100803.44;2101808;28;46293;-63
2023/10/03 02:56:59;;;;;;;;;17.60;16.00;;;;;26.26;100.00;100799.22;2105085;28;46671;-62
2023/10/03 02:57:59;;;;;;;;;16.50;16.50;;;;;26.29;100.00;100804.41;2104713;27;46687;-63
2023/10/03 02:59:00;;;;;;;;;14.50;14.50;;;;;26.31;100.00;100809.75;2104710;28;46104;-63
2023/10/03 03:00:11;;;;;;;;;14.20;14.20;;;;;26.36;100.00;100800.19;2104922;27;46444;-63
2023/10/03 03:01:12;;;;;;;;;14.00;14.00;;;;;26.37;100.00;100811.94;2111640;27;46721;-63
2023/10/03 03:02:14;;;;;;;;;15.00;15.00;;;;;26.38;100.00;100811.81;2113830;27;46721;-63
2023/10/03 03:03:15;;;;;;;;;12.40;11.60;;;;;26.37;100.00;100807.38;2113817;27;46463;-63
2023/10/03 03:04:17;;;;;;;;;16.00;14.75;;;;;26.36;100.00;100807.50;2114132;27;46195;-61
2023/10/03 03:05:21;;;;;;;;;11.60;11.60;;;;;26.36;100.00;100804.78;2115160;27;46306;-60
2023/10/03 03:06:22;;;;;;;;;13.40;13.00;;;;;26.36;100.00;100805.63;2114159;27;46323;-63
2023/10/03 03:07:25;;;;;;;;;14.25;13.25;;;;;26.35;100.00;100795.72;2113483;27;46697;-58
2023/10/03 03:08:28;;;;;;;;;14.60;14.00;;;;;26.34;100.00;100798.56;2111629;27;48915;-63
2023/10/03 03:09:28;;;;;;;;;14.60;14.60;;;;;26.35;100.00;100808.47;2113797;27;46485;-62
2023/10/03 03:10:28;;;;;;;;;12.75;11.75;;;;;26.34;100.00;100809.47;2113122;27;46824;-58
2023/10/03 03:11:31;;;;;;;;;15.50;14.75;;;;;26.33;100.00;100807.75;2107158;27;46222;-61
2023/10/03 03:12:35;;;;;;;;;11.20;11.20;;;;;26.32;100.00;100806.00;2104943;27;46457;-63
2023/10/03 03:13:36;;;;;;;;;15.20;13.80;;;;;26.30;100.00;100808.88;2112703;27;46476;-63
2023/10/03 03:14:36;;;;;;;;;15.40;13.80;;;;;26.30;100.00;100803.44;2113580;27;46355;-61
2023/10/03 03:15:37;;;;;;;;;10.75;10.75;;;;;26.29;100.00;100807.13;2117127;27;46726;-63
2023/10/03 03:16:40;;;;;;;;;12.75;12.75;;;;;26.29;100.00;100808.97;2119180;27;46098;-62
2023/10/03 03:17:40;;;;;;;;;11.80;11.80;;;;;26.27;100.00;100806.38;2119742;27;46634;-63
2023/10/03 03:18:41;;;;;;;;;16.25;12.25;;;;;26.27;100.00;100806.38;2113917;27;46573;-61
2023/10/03 03:19:44;;;;;;;;;14.40;12.80;;;;;26.29;100.00;100811.69;2104978;28;46881;-62
2023/10/03 03:20:49;;;;;;;;;15.20;15.00;;;;;26.28;100.00;100813.56;2105250;27;46472;-58
2023/10/03 03:21:50;;;;;;;;;15.00;14.00;;;;;26.26;100.00;100821.00;2105159;28;46464;-62
2023/10/03 03:22:51;;;;;;;;;13.75;12.50;;;;;26.30;100.00;100813.47;2110252;27;46432;-63
2023/10/03 03:24:00;;;;;;;;;14.50;14.50;;;;;26.25;100.00;100818.41;2113684;27;46743;-59
2023/10/03 03:25:00;;;;;;;;;13.20;13.20;;;;;26.24;100.00;100820.28;2113091;27;46742;-62
2023/10/03 03:27:16;;;;;;;;;10.20;10.20;;;;;26.27;100.00;100810.97;2113511;27;46175;-62
2023/10/03 03:28:23;;;;;;;;;16.80;13.60;;;;;26.27;100.00;100819.13;2105078;27;47057;-63
2023/10/03 03:29:35;;;;;;;;;13.00;12.80;;;;;26.26;100.00;100815.56;2111330;27;46457;-64
2023/10/03 03:30:35;;;;;;;;;12.00;11.80;;;;;26.26;100.00;100815.56;2113933;27;46729;-63
2023/10/03 03:31:35;;;;;;;;;12.00;12.00;;;;;26.24;100.00;100817.53;2113716;27;46419;-59
2023/10/03 03:32:38;;;;;;;;;12.00;10.60;;;;;26.23;100.00;100814.97;2112764;27;46899;-63
2023/10/03 03:33:39;;;;;;;;;13.20;13.20;;;;;26.22;100.00;100819.53;2113174;27;46548;-62
2023/10/03 03:34:40;;;;;;;;;12.20;12.20;;;;;26.21;100.00;100814.25;2114149;27;46910;-62
2023/10/03 03:35:40;;;;;;;;;11.50;10.75;;;;;26.21;100.00;100828.69;2113937;27;46222;-60
2023/10/03 03:36:41;;;;;;;;;11.50;11.50;;;;;26.21;100.00;100823.25;2113902;27;46263;-58
2023/10/03 03:37:41;;;;;;;;;14.50;14.00;;;;;26.20;100.00;100832.41;2113580;27;46855;-62
2023/10/03 03:38:41;;;;;;;;;14.25;14.25;;;;;26.20;100.00;100831.56;2114012;27;46360;-62
2023/10/03 03:39:54;;;;;;;;;14.00;12.50;;;;;26.18;100.00;100828.09;2113727;27;46613;-61
2023/10/03 03:40:59;;;;;;;;;13.60;13.00;;;;;26.18;100.00;100831.69;2107548;27;46541;-64
2023/10/03 03:41:59;;;;;;;;;13.00;12.00;;;;;26.16;100.00;100830.94;2108043;27;46892;-64
2023/10/03 03:43:05;;;;;;;;;10.50;10.50;;;;;26.15;100.00;100821.03;2113779;27;46307;-64
2023/10/03 03:44:12;;;;;;;;;13.00;13.00;;;;;26.13;100.00;100820.31;2099387;28;46463;-63
2023/10/03 03:45:12;;;;;;;;;13.00;13.00;;;;;26.13;100.00;100824.91;2104694;28;46619;-60
2023/10/03 03:46:12;;;;;;;;;13.25;13.25;;;;;26.15;100.00;100820.19;2105236;28;46515;-62
2023/10/03 03:47:13;;;;;;;;;13.50;13.50;;;;;26.15;100.00;100825.63;2110022;27;46473;-64
2023/10/03 03:48:13;;;;;;;;;11.75;11.75;;;;;26.15;100.00;100818.31;2113719;27;46243;-63
2023/10/03 03:49:14;;;;;;;;;12.50;11.75;;;;;26.15;100.00;100822.91;2112954;27;46185;-63
2023/10/03 03:50:16;;;;;;;;;12.75;12.75;;;;;26.13;100.00;100827.63;2113710;27;46276;-59
2023/10/03 03:51:17;;;;;;;;;12.60;11.80;;;;;26.15;100.00;100826.47;2113633;27;46977;-61
2023/10/03 03:52:17;;;;;;;;;10.00;9.50;;;;;26.15;100.00;100831.06;2104370;28;46411;-60
2023/10/03 03:53:21;;;;;;;;;12.75;12.25;;;;;26.14;100.00;100830.19;2104740;28;46996;-63
2023/10/03 03:54:21;;;;;;;;;10.80;10.80;;;;;26.15;100.00;100836.50;2105030;28;46460;-63
2023/10/03 03:55:22;;;;;;;;;11.75;11.75;;;;;26.15;100.00;100831.06;2110736;27;46309;-62
2023/10/03 03:56:23;;;;;;;;;13.00;12.60;;;;;26.16;100.00;100839.09;2104526;28;46492;-58
2023/10/03 03:57:24;;;;;;;;;8.67;8.67;;;;;26.19;100.00;100838.00;2104501;27;46455;-64
2023/10/03 03:58:24;;;;;;;;;11.00;11.00;;;;;26.18;100.00;100831.69;2113602;27;46302;-63
2023/10/03 03:59:24;;;;;;;;;11.00;10.00;;;;;26.19;100.00;100843.44;2113917;27;46344;-63
2023/10/03 04:00:29;;;;;;;;;13.33;10.67;;;;;26.19;100.00;100843.44;2112091;27;46709;-65
2023/10/03 04:01:29;;;;;;;;;11.25;11.25;;;;;26.16;100.00;100849.09;2104500;28;46836;-62
2023/10/03 04:02:30;;;;;;;;;10.67;10.33;;;;;26.16;100.00;100851.81;2104652;27;47016;-63
2023/10/03 04:03:34;;;;;;;;;10.33;10.33;;;;;26.15;100.00;100855.53;2113530;27;46066;-61
2023/10/03 04:04:34;;;;;;;;;10.00;9.25;;;;;26.13;100.00;100852.97;2113608;27;46849;-62
2023/10/03 04:05:35;;;;;;;;;9.00;7.67;;;;;26.14;100.00;100854.69;2109686;27;46138;-63
2023/10/03 04:06:36;;;;;;;;;10.25;8.75;;;;;26.14;100.00;100853.81;2108601;27;47006;-62
2023/10/03 04:07:38;;;;;;;;;9.00;8.00;;;;;26.13;100.00;100854.81;2104450;28;46730;-62
2023/10/03 04:08:39;;;;;;;;;8.50;8.00;;;;;26.14;100.00;100853.81;2104530;27;46392;-62
2023/10/03 04:09:39;;;;;;;;;11.00;11.00;;;;;26.11;100.00;100863.13;2113626;27;46933;-61
2023/10/03 04:10:43;;;;;;;;;12.33;11.00;;;;;26.14;100.00;100856.53;2113397;27;46235;-62
2023/10/03 04:11:43;;;;;;;;;9.25;9.00;;;;;26.15;100.00;100866.44;2110522;27;46324;-60
2023/10/03 04:12:43;;;;;;;;;10.33;9.00;;;;;26.14;100.00;100864.69;2107367;27;46042;-62
2023/10/03 04:13:49;;;;;;;;;8.00;8.00;;;;;26.12;100.00;100867.56;2105636;27;46590;-60
2023/10/03 04:14:50;;;;;;;;;9.25;8.00;;;;;26.13;100.00;100860.25;2104262;27;46149;-61
2023/10/03 04:15:50;;;;;;;;;8.00;8.00;;;;;26.11;100.00;100855.81;2107504;27;46781;-63
2023/10/03 04:16:51;;;;;;;;;7.67;7.67;;;;;26.10;100.00;100848.66;2110983;27;46434;-62
2023/10/03 04:17:51;;;;;;;;;10.75;10.75;;;;;26.10;100.00;100854.09;2106996;27;46897;-63
2023/10/03 04:18:51;;;;;;;;;8.33;8.33;;;;;26.12;100.00;100859.41;2110043;27;46340;-60
2023/10/03 04:19:52;;;;;;;;;7.33;7.33;;;;;26.12;100.00;100856.66;2109537;27;46361;-60
2023/10/03 04:20:53;;;;;;;;;8.00;8.00;;;;;26.11;100.00;100854.94;2107366;27;46557;-61
2023/10/03 04:21:54;;;;;;;;;6.50;6.25;;;;;26.04;100.00;100865.50;2112716;27;46813;-62
2023/10/03 04:22:55;;;;;;;;;8.25;8.25;;;;;26.04;100.00;100867.31;2107634;27;46334;-63
2023/10/03 04:23:56;;;;;;;;;8.00;8.00;;;;;26.03;100.00;100866.47;2107000;27;46427;-61
2023/10/03 04:24:56;;;;;;;;;9.00;9.00;;;;;26.03;100.00;100868.31;2103830;28;46202;-62
2023/10/03 04:25:56;;;;;;;;;8.33;7.67;;;;;26.05;100.00;100877.25;2103846;28;46439;-61
2023/10/03 04:26:57;;;;;;;;;8.67;7.67;;;;;26.04;100.00;100870.03;2105279;27;46437;-63
2023/10/03 04:27:58;;;;;;;;;9.67;8.00;;;;;26.03;100.00;100874.63;2104309;28;45871;-62
2023/10/03 04:28:58;;;;;;;;;7.00;7.00;;;;;26.05;100.00;100871.81;2103816;28;46797;-61
2023/10/03 04:29:58;;;;;;;;;7.00;7.00;;;;;26.04;100.00;100878.19;2104018;28;46773;-62
2023/10/03 04:30:59;;;;;;;;;9.67;8.00;;;;;26.02;100.00;100891.94;2100180;28;46239;-62
2023/10/03 04:31:59;;;;;;;;;7.33;7.00;;;;;26.04;100.00;100886.38;2094707;28;46366;-62
2023/10/03 04:33:00;;;;;;;;;8.33;7.00;;;;;26.01;100.00;100886.63;2108801;27;46261;-61
2023/10/03 04:34:00;;;;;;;;;6.00;6.00;;;;;26.03;100.00;100900.97;2108125;27;45755;-62
2023/10/03 04:35:02;;;;;;;;;7.33;7.33;;;;;26.04;100.00;100886.38;2104991;27;46448;-59
2023/10/03 04:36:09;;;;;;;;;7.25;6.75;;;;;26.00;100.00;100885.75;2111572;27;46317;-62
2023/10/03 04:37:10;;;;;;;;;8.00;8.00;;;;;25.99;100.00;100883.19;2111719;27;46837;-59
2023/10/03 04:38:14;;;;;;;;;6.67;6.67;;;;;25.97;100.00;100883.31;2103906;28;46412;-61
2023/10/03 04:39:15;;;;;;;;;9.00;9.00;;;;;25.98;100.00;100881.44;2101839;27;46917;-59